sensor_id;sensor_type;location;lat;lon;timestamp;temperature;humidity
43346;DHT22;28937;51.160;4.146;2022-08-03T00:01:04;25.50;84.60
43346;DHT22;28937;51.160;4.146;2022-08-03T00:03:30;25.50;84.70
43346;DHT22;28937;51.160;4.146;2022-08-03T00:05:55;25.50;84.70
43346;DHT22;28937;51.160;4.146;2022-08-03T00:08:21;25.40;84.70
43346;DHT22;28937;51.160;4.146;2022-08-03T00:10:47;25.40;84.80
43346;DHT22;28937;51.160;4.146;2022-08-03T00:13:12;25.40;84.70
43346;DHT22;28937;51.160;4.146;2022-08-03T00:15:40;25.40;84.90
43346;DHT22;28937;51.160;4.146;2022-08-03T00:18:06;25.40;84.90
43346;DHT22;28937;51.160;4.146;2022-08-03T00:20:31;25.30;84.80
43346;DHT22;28937;51.160;4.146;2022-08-03T00:22:57;25.30;84.90
43346;DHT22;28937;51.160;4.146;2022-08-03T00:25:23;25.40;84.80
43346;DHT22;28937;51.160;4.146;2022-08-03T00:27:48;25.30;84.70
43346;DHT22;28937;51.160;4.146;2022-08-03T00:30:14;25.30;85.00
43346;DHT22;28937;51.160;4.146;2022-08-03T00:32:40;25.30;85.00
43346;DHT22;28937;51.160;4.146;2022-08-03T00:35:06;25.20;85.10
43346;DHT22;28937;51.160;4.146;2022-08-03T00:37:32;25.20;85.20
43346;DHT22;28937;51.160;4.146;2022-08-03T00:39:57;25.20;85.10
43346;DHT22;28937;51.160;4.146;2022-08-03T00:42:23;25.20;85.10
43346;DHT22;28937;51.160;4.146;2022-08-03T00:44:48;25.20;85.20
43346;DHT22;28937;51.160;4.146;2022-08-03T00:47:14;25.20;85.20
43346;DHT22;28937;51.160;4.146;2022-08-03T00:49:41;25.10;85.20
43346;DHT22;28937;51.160;4.146;2022-08-03T00:52:10;25.10;85.20
43346;DHT22;28937;51.160;4.146;2022-08-03T00:54:38;25.10;85.80
43346;DHT22;28937;51.160;4.146;2022-08-03T00:57:05;25.10;85.10
43346;DHT22;28937;51.160;4.146;2022-08-03T00:59:30;25.10;85.20
43346;DHT22;28937;51.160;4.146;2022-08-03T01:01:56;25.10;85.20
43346;DHT22;28937;51.160;4.146;2022-08-03T01:04:22;25.10;85.30
43346;DHT22;28937;51.160;4.146;2022-08-03T01:06:52;25.00;85.20
43346;DHT22;28937;51.160;4.146;2022-08-03T01:12:00;25.00;85.20
43346;DHT22;28937;51.160;4.146;2022-08-03T01:14:36;24.90;85.40
43346;DHT22;28937;51.160;4.146;2022-08-03T01:17:27;25.00;85.20
43346;DHT22;28937;51.160;4.146;2022-08-03T01:20:23;25.00;85.30
43346;DHT22;28937;51.160;4.146;2022-08-03T01:25:52;24.90;85.30
43346;DHT22;28937;51.160;4.146;2022-08-03T01:31:15;24.90;85.30
43346;DHT22;28937;51.160;4.146;2022-08-03T01:33:47;24.90;85.40
43346;DHT22;28937;51.160;4.146;2022-08-03T01:36:18;24.80;85.30
43346;DHT22;28937;51.160;4.146;2022-08-03T01:38:59;24.80;85.30
43346;DHT22;28937;51.160;4.146;2022-08-03T01:41:32;24.80;85.40
43346;DHT22;28937;51.160;4.146;2022-08-03T01:44:00;24.80;85.40
43346;DHT22;28937;51.160;4.146;2022-08-03T01:46:29;24.80;85.50
43346;DHT22;28937;51.160;4.146;2022-08-03T01:48:56;24.80;85.60
43346;DHT22;28937;51.160;4.146;2022-08-03T01:51:22;24.80;85.70
43346;DHT22;28937;51.160;4.146;2022-08-03T01:53:49;24.70;85.60
43346;DHT22;28937;51.160;4.146;2022-08-03T01:56:17;24.70;85.70
43346;DHT22;28937;51.160;4.146;2022-08-03T01:58:45;24.60;85.90
43346;DHT22;28937;51.160;4.146;2022-08-03T02:01:12;24.60;86.00
43346;DHT22;28937;51.160;4.146;2022-08-03T02:03:40;24.60;85.90
43346;DHT22;28937;51.160;4.146;2022-08-03T02:06:10;24.60;86.00
43346;DHT22;28937;51.160;4.146;2022-08-03T02:08:37;24.60;86.00
43346;DHT22;28937;51.160;4.146;2022-08-03T02:11:04;24.60;86.00
43346;DHT22;28937;51.160;4.146;2022-08-03T02:13:32;24.60;86.70
43346;DHT22;28937;51.160;4.146;2022-08-03T02:16:01;24.60;86.10
43346;DHT22;28937;51.160;4.146;2022-08-03T02:18:28;24.60;86.30
43346;DHT22;28937;51.160;4.146;2022-08-03T02:20:55;24.50;86.20
43346;DHT22;28937;51.160;4.146;2022-08-03T02:23:21;24.50;86.30
43346;DHT22;28937;51.160;4.146;2022-08-03T02:25:52;24.50;86.30
43346;DHT22;28937;51.160;4.146;2022-08-03T02:28:21;24.50;86.40
43346;DHT22;28937;51.160;4.146;2022-08-03T02:30:52;24.50;86.40
43346;DHT22;28937;51.160;4.146;2022-08-03T02:33:29;24.40;86.40
43346;DHT22;28937;51.160;4.146;2022-08-03T02:35:56;24.40;86.60
43346;DHT22;28937;51.160;4.146;2022-08-03T02:38:27;24.40;87.20
43346;DHT22;28937;51.160;4.146;2022-08-03T02:40:57;24.40;86.50
43346;DHT22;28937;51.160;4.146;2022-08-03T02:43:23;24.40;86.70
43346;DHT22;28937;51.160;4.146;2022-08-03T02:45:50;24.40;86.80
43346;DHT22;28937;51.160;4.146;2022-08-03T02:48:19;24.30;86.80
43346;DHT22;28937;51.160;4.146;2022-08-03T02:50:48;24.30;86.90
43346;DHT22;28937;51.160;4.146;2022-08-03T02:53:16;24.30;87.10
43346;DHT22;28937;51.160;4.146;2022-08-03T02:55:44;24.30;87.20
43346;DHT22;28937;51.160;4.146;2022-08-03T02:58:12;24.20;87.20
43346;DHT22;28937;51.160;4.146;2022-08-03T03:00:38;24.30;87.30
43346;DHT22;28937;51.160;4.146;2022-08-03T03:03:04;24.30;87.20
43346;DHT22;28937;51.160;4.146;2022-08-03T03:05:31;24.20;87.30
43346;DHT22;28937;51.160;4.146;2022-08-03T03:07:57;24.20;87.50
43346;DHT22;28937;51.160;4.146;2022-08-03T03:10:23;24.20;87.50
43346;DHT22;28937;51.160;4.146;2022-08-03T03:12:53;24.20;87.60
43346;DHT22;28937;51.160;4.146;2022-08-03T03:15:19;24.10;87.50
43346;DHT22;28937;51.160;4.146;2022-08-03T03:17:47;24.10;87.60
43346;DHT22;28937;51.160;4.146;2022-08-03T03:20:14;24.10;87.80
43346;DHT22;28937;51.160;4.146;2022-08-03T03:22:40;24.10;87.90
43346;DHT22;28937;51.160;4.146;2022-08-03T03:25:07;24.10;87.90
43346;DHT22;28937;51.160;4.146;2022-08-03T03:27:33;24.00;87.90
43346;DHT22;28937;51.160;4.146;2022-08-03T03:29:59;24.00;88.10
43346;DHT22;28937;51.160;4.146;2022-08-03T03:32:26;24.00;88.20
43346;DHT22;28937;51.160;4.146;2022-08-03T03:34:54;24.00;88.40
43346;DHT22;28937;51.160;4.146;2022-08-03T03:37:20;24.00;88.40
43346;DHT22;28937;51.160;4.146;2022-08-03T03:39:46;24.00;88.40
43346;DHT22;28937;51.160;4.146;2022-08-03T03:42:12;24.00;88.50
43346;DHT22;28937;51.160;4.146;2022-08-03T03:44:38;24.00;88.60
43346;DHT22;28937;51.160;4.146;2022-08-03T03:47:03;23.90;88.60
43346;DHT22;28937;51.160;4.146;2022-08-03T03:49:30;23.90;88.60
43346;DHT22;28937;51.160;4.146;2022-08-03T03:51:56;23.90;88.60
43346;DHT22;28937;51.160;4.146;2022-08-03T03:54:22;23.90;88.60
43346;DHT22;28937;51.160;4.146;2022-08-03T03:56:47;23.90;88.70
43346;DHT22;28937;51.160;4.146;2022-08-03T03:59:13;23.90;88.70
43346;DHT22;28937;51.160;4.146;2022-08-03T04:01:39;23.90;88.80
43346;DHT22;28937;51.160;4.146;2022-08-03T04:04:05;23.90;88.80
43346;DHT22;28937;51.160;4.146;2022-08-03T04:06:49;23.80;88.80
43346;DHT22;28937;51.160;4.146;2022-08-03T04:09:35;23.80;89.00
43346;DHT22;28937;51.160;4.146;2022-08-03T04:12:21;23.80;89.10
43346;DHT22;28937;51.160;4.146;2022-08-03T04:14:50;23.80;89.20
43346;DHT22;28937;51.160;4.146;2022-08-03T04:17:17;23.80;89.20
43346;DHT22;28937;51.160;4.146;2022-08-03T04:19:49;23.70;89.20
43346;DHT22;28937;51.160;4.146;2022-08-03T04:22:19;23.80;89.30
43346;DHT22;28937;51.160;4.146;2022-08-03T04:24:49;23.80;89.30
43346;DHT22;28937;51.160;4.146;2022-08-03T04:27:22;23.80;89.40
43346;DHT22;28937;51.160;4.146;2022-08-03T04:29:51;23.70;89.30
43346;DHT22;28937;51.160;4.146;2022-08-03T04:32:18;23.70;89.40
43346;DHT22;28937;51.160;4.146;2022-08-03T04:34:45;23.70;89.40
43346;DHT22;28937;51.160;4.146;2022-08-03T04:37:16;23.70;89.50
43346;DHT22;28937;51.160;4.146;2022-08-03T04:39:43;23.70;89.60
43346;DHT22;28937;51.160;4.146;2022-08-03T04:42:10;23.70;89.70
43346;DHT22;28937;51.160;4.146;2022-08-03T04:44:41;23.70;89.70
43346;DHT22;28937;51.160;4.146;2022-08-03T04:47:07;23.70;89.80
43346;DHT22;28937;51.160;4.146;2022-08-03T04:49:35;23.60;89.80
43346;DHT22;28937;51.160;4.146;2022-08-03T04:52:02;23.60;90.00
43346;DHT22;28937;51.160;4.146;2022-08-03T04:54:28;23.60;90.00
43346;DHT22;28937;51.160;4.146;2022-08-03T04:56:53;23.60;90.00
43346;DHT22;28937;51.160;4.146;2022-08-03T04:59:19;23.60;90.00
43346;DHT22;28937;51.160;4.146;2022-08-03T05:01:44;23.60;90.00
43346;DHT22;28937;51.160;4.146;2022-08-03T05:04:10;23.50;90.00
43346;DHT22;28937;51.160;4.146;2022-08-03T05:06:35;23.30;90.20
43346;DHT22;28937;51.160;4.146;2022-08-03T05:09:02;23.30;90.50
43346;DHT22;28937;51.160;4.146;2022-08-03T05:11:28;23.30;90.60
43346;DHT22;28937;51.160;4.146;2022-08-03T05:13:53;23.20;90.60
43346;DHT22;28937;51.160;4.146;2022-08-03T05:16:19;23.30;90.70
43346;DHT22;28937;51.160;4.146;2022-08-03T05:18:45;23.20;90.70
43346;DHT22;28937;51.160;4.146;2022-08-03T05:21:11;23.20;90.80
43346;DHT22;28937;51.160;4.146;2022-08-03T05:23:41;23.20;90.80
43346;DHT22;28937;51.160;4.146;2022-08-03T05:26:07;23.20;90.90
43346;DHT22;28937;51.160;4.146;2022-08-03T05:28:33;23.20;90.90
43346;DHT22;28937;51.160;4.146;2022-08-03T05:30:58;23.20;90.90
43346;DHT22;28937;51.160;4.146;2022-08-03T05:33:24;23.20;91.00
43346;DHT22;28937;51.160;4.146;2022-08-03T05:35:49;23.20;91.00
43346;DHT22;28937;51.160;4.146;2022-08-03T05:38:15;23.20;91.30
43346;DHT22;28937;51.160;4.146;2022-08-03T05:40:41;23.30;91.10
43346;DHT22;28937;51.160;4.146;2022-08-03T05:43:06;23.20;91.20
43346;DHT22;28937;51.160;4.146;2022-08-03T05:45:32;23.20;91.20
43346;DHT22;28937;51.160;4.146;2022-08-03T05:47:57;23.30;91.30
43346;DHT22;28937;51.160;4.146;2022-08-03T05:50:23;23.30;91.30
43346;DHT22;28937;51.160;4.146;2022-08-03T05:52:49;23.30;91.30
43346;DHT22;28937;51.160;4.146;2022-08-03T05:55:15;23.40;91.40
43346;DHT22;28937;51.160;4.146;2022-08-03T05:57:41;23.50;91.20
43346;DHT22;28937;51.160;4.146;2022-08-03T06:00:09;23.70;91.30
43346;DHT22;28937;51.160;4.146;2022-08-03T06:02:35;23.70;91.40
43346;DHT22;28937;51.160;4.146;2022-08-03T06:05:01;23.80;91.40
43346;DHT22;28937;51.160;4.146;2022-08-03T06:07:27;23.90;90.80
43346;DHT22;28937;51.160;4.146;2022-08-03T06:09:53;24.00;91.10
43346;DHT22;28937;51.160;4.146;2022-08-03T06:12:18;24.00;91.20
43346;DHT22;28937;51.160;4.146;2022-08-03T06:14:44;24.00;90.80
43346;DHT22;28937;51.160;4.146;2022-08-03T06:17:10;24.10;90.50
43346;DHT22;28937;51.160;4.146;2022-08-03T06:19:36;24.10;90.50
43346;DHT22;28937;51.160;4.146;2022-08-03T06:22:02;24.10;90.40
43346;DHT22;28937;51.160;4.146;2022-08-03T06:24:27;24.20;90.30
43346;DHT22;28937;51.160;4.146;2022-08-03T06:26:53;24.20;90.30
43346;DHT22;28937;51.160;4.146;2022-08-03T06:29:18;24.30;90.20
43346;DHT22;28937;51.160;4.146;2022-08-03T06:31:44;24.40;90.10
43346;DHT22;28937;51.160;4.146;2022-08-03T06:34:10;24.30;90.20
43346;DHT22;28937;51.160;4.146;2022-08-03T06:36:35;24.30;90.30
43346;DHT22;28937;51.160;4.146;2022-08-03T06:39:02;24.40;90.20
43346;DHT22;28937;51.160;4.146;2022-08-03T06:41:28;24.40;90.10
43346;DHT22;28937;51.160;4.146;2022-08-03T06:43:54;24.40;90.10
43346;DHT22;28937;51.160;4.146;2022-08-03T06:46:19;24.40;90.10
43346;DHT22;28937;51.160;4.146;2022-08-03T06:48:45;24.40;90.10
43346;DHT22;28937;51.160;4.146;2022-08-03T06:51:11;24.40;90.10
43346;DHT22;28937;51.160;4.146;2022-08-03T06:53:37;24.40;90.10
43346;DHT22;28937;51.160;4.146;2022-08-03T06:56:05;24.40;90.10
43346;DHT22;28937;51.160;4.146;2022-08-03T06:58:31;24.50;90.10
43346;DHT22;28937;51.160;4.146;2022-08-03T07:00:57;24.50;90.10
43346;DHT22;28937;51.160;4.146;2022-08-03T07:03:23;24.50;90.00
43346;DHT22;28937;51.160;4.146;2022-08-03T07:05:48;24.60;90.00
43346;DHT22;28937;51.160;4.146;2022-08-03T07:08:16;24.60;90.00
43346;DHT22;28937;51.160;4.146;2022-08-03T07:10:42;24.60;90.00
43346;DHT22;28937;51.160;4.146;2022-08-03T07:13:08;24.60;89.60
43346;DHT22;28937;51.160;4.146;2022-08-03T07:15:34;24.70;89.50
43346;DHT22;28937;51.160;4.146;2022-08-03T07:17:59;24.70;89.60
43346;DHT22;28937;51.160;4.146;2022-08-03T07:20:25;24.70;89.70
43346;DHT22;28937;51.160;4.146;2022-08-03T07:22:51;24.70;89.50
43346;DHT22;28937;51.160;4.146;2022-08-03T07:25:16;24.80;89.90
43346;DHT22;28937;51.160;4.146;2022-08-03T07:27:43;24.80;89.20
43346;DHT22;28937;51.160;4.146;2022-08-03T07:30:09;24.90;89.00
43346;DHT22;28937;51.160;4.146;2022-08-03T07:32:34;24.90;88.90
43346;DHT22;28937;51.160;4.146;2022-08-03T07:35:01;24.90;88.70
43346;DHT22;28937;51.160;4.146;2022-08-03T07:37:27;25.00;88.40
43346;DHT22;28937;51.160;4.146;2022-08-03T07:39:52;25.00;88.20
43346;DHT22;28937;51.160;4.146;2022-08-03T07:42:18;25.00;88.10
43346;DHT22;28937;51.160;4.146;2022-08-03T07:44:44;25.10;87.90
43346;DHT22;28937;51.160;4.146;2022-08-03T07:47:10;25.10;87.80
43346;DHT22;28937;51.160;4.146;2022-08-03T07:49:39;25.10;87.50
43346;DHT22;28937;51.160;4.146;2022-08-03T07:52:05;25.20;87.40
43346;DHT22;28937;51.160;4.146;2022-08-03T07:54:49;25.20;87.40
43346;DHT22;28937;51.160;4.146;2022-08-03T07:57:15;25.20;87.40
43346;DHT22;28937;51.160;4.146;2022-08-03T07:59:40;25.30;87.30
43346;DHT22;28937;51.160;4.146;2022-08-03T08:02:07;25.30;87.10
43346;DHT22;28937;51.160;4.146;2022-08-03T08:04:32;25.30;86.80
43346;DHT22;28937;51.160;4.146;2022-08-03T08:06:58;25.40;86.70
43346;DHT22;28937;51.160;4.146;2022-08-03T08:09:23;25.50;86.50
43346;DHT22;28937;51.160;4.146;2022-08-03T08:11:49;25.50;86.40
43346;DHT22;28937;51.160;4.146;2022-08-03T08:14:15;25.50;86.00
43346;DHT22;28937;51.160;4.146;2022-08-03T08:16:40;25.50;85.90
43346;DHT22;28937;51.160;4.146;2022-08-03T08:19:06;25.60;85.90
43346;DHT22;28937;51.160;4.146;2022-08-03T08:21:32;25.60;85.90
43346;DHT22;28937;51.160;4.146;2022-08-03T08:23:57;25.70;85.70
43346;DHT22;28937;51.160;4.146;2022-08-03T08:26:23;25.70;85.30
43346;DHT22;28937;51.160;4.146;2022-08-03T08:28:48;25.60;85.20
43346;DHT22;28937;51.160;4.146;2022-08-03T08:31:14;25.60;85.30
43346;DHT22;28937;51.160;4.146;2022-08-03T08:33:40;25.70;85.30
43346;DHT22;28937;51.160;4.146;2022-08-03T08:36:05;25.70;85.30
43346;DHT22;28937;51.160;4.146;2022-08-03T08:38:34;25.70;85.00
43346;DHT22;28937;51.160;4.146;2022-08-03T08:40:59;25.80;84.80
43346;DHT22;28937;51.160;4.146;2022-08-03T08:43:26;25.80;84.70
43346;DHT22;28937;51.160;4.146;2022-08-03T08:45:53;25.90;84.60
43346;DHT22;28937;51.160;4.146;2022-08-03T08:48:21;25.90;84.40
43346;DHT22;28937;51.160;4.146;2022-08-03T08:50:52;25.90;84.30
43346;DHT22;28937;51.160;4.146;2022-08-03T08:53:19;25.90;84.30
43346;DHT22;28937;51.160;4.146;2022-08-03T08:55:46;25.80;84.30
43346;DHT22;28937;51.160;4.146;2022-08-03T08:58:13;25.90;84.00
43346;DHT22;28937;51.160;4.146;2022-08-03T09:00:41;26.00;83.90
43346;DHT22;28937;51.160;4.146;2022-08-03T09:03:09;26.00;84.00
43346;DHT22;28937;51.160;4.146;2022-08-03T09:05:35;25.90;84.10
43346;DHT22;28937;51.160;4.146;2022-08-03T09:08:04;26.00;83.90
43346;DHT22;28937;51.160;4.146;2022-08-03T09:10:30;26.10;83.60
43346;DHT22;28937;51.160;4.146;2022-08-03T09:12:55;26.00;83.60
43346;DHT22;28937;51.160;4.146;2022-08-03T09:17:49;26.00;83.10
43346;DHT22;28937;51.160;4.146;2022-08-03T09:20:15;26.20;82.80
43346;DHT22;28937;51.160;4.146;2022-08-03T09:22:59;26.20;82.00
43346;DHT22;28937;51.160;4.146;2022-08-03T09:25:34;26.20;82.00
43346;DHT22;28937;51.160;4.146;2022-08-03T09:30:33;26.10;81.80
43346;DHT22;28937;51.160;4.146;2022-08-03T09:33:07;26.10;81.80
43346;DHT22;28937;51.160;4.146;2022-08-03T09:35:40;26.20;81.80
43346;DHT22;28937;51.160;4.146;2022-08-03T09:40:37;26.20;81.60
43346;DHT22;28937;51.160;4.146;2022-08-03T09:43:03;26.20;81.50
43346;DHT22;28937;51.160;4.146;2022-08-03T09:45:32;26.20;81.90
43346;DHT22;28937;51.160;4.146;2022-08-03T09:48:28;26.30;81.80
43346;DHT22;28937;51.160;4.146;2022-08-03T09:50:59;26.30;81.90
43346;DHT22;28937;51.160;4.146;2022-08-03T09:53:25;26.30;81.90
43346;DHT22;28937;51.160;4.146;2022-08-03T09:55:52;26.40;82.00
43346;DHT22;28937;51.160;4.146;2022-08-03T09:58:20;26.50;82.30
43346;DHT22;28937;51.160;4.146;2022-08-03T10:03:18;26.40;82.70
43346;DHT22;28937;51.160;4.146;2022-08-03T10:05:44;26.40;83.00
43346;DHT22;28937;51.160;4.146;2022-08-03T10:08:17;26.40;83.80
43346;DHT22;28937;51.160;4.146;2022-08-03T10:10:45;26.50;84.20
43346;DHT22;28937;51.160;4.146;2022-08-03T10:13:12;26.50;86.00
43346;DHT22;28937;51.160;4.146;2022-08-03T10:15:39;26.50;86.00
43346;DHT22;28937;51.160;4.146;2022-08-03T10:18:05;26.40;86.10
43346;DHT22;28937;51.160;4.146;2022-08-03T10:20:34;26.50;86.80
43346;DHT22;28937;51.160;4.146;2022-08-03T10:23:01;26.50;87.90
43346;DHT22;28937;51.160;4.146;2022-08-03T10:25:29;26.60;87.50
43346;DHT22;28937;51.160;4.146;2022-08-03T10:27:55;26.60;87.80
43346;DHT22;28937;51.160;4.146;2022-08-03T10:30:22;26.60;87.20
43346;DHT22;28937;51.160;4.146;2022-08-03T10:32:57;26.60;87.40
43346;DHT22;28937;51.160;4.146;2022-08-03T10:35:25;26.70;86.20
43346;DHT22;28937;51.160;4.146;2022-08-03T10:38:05;26.70;86.20
43346;DHT22;28937;51.160;4.146;2022-08-03T10:40:35;26.70;86.50
43346;DHT22;28937;51.160;4.146;2022-08-03T10:43:18;26.70;86.90
43346;DHT22;28937;51.160;4.146;2022-08-03T10:45:45;26.70;87.60
43346;DHT22;28937;51.160;4.146;2022-08-03T10:48:11;26.70;87.70
43346;DHT22;28937;51.160;4.146;2022-08-03T10:50:38;26.70;89.10
43346;DHT22;28937;51.160;4.146;2022-08-03T10:53:06;26.70;88.50
43346;DHT22;28937;51.160;4.146;2022-08-03T10:55:38;26.70;87.30
43346;DHT22;28937;51.160;4.146;2022-08-03T10:58:45;26.80;86.80
43346;DHT22;28937;51.160;4.146;2022-08-03T11:01:11;26.80;86.40
43346;DHT22;28937;51.160;4.146;2022-08-03T11:06:20;26.80;85.90
43346;DHT22;28937;51.160;4.146;2022-08-03T11:08:47;26.80;86.10
43346;DHT22;28937;51.160;4.146;2022-08-03T11:14:00;26.80;86.20
43346;DHT22;28937;51.160;4.146;2022-08-03T11:16:32;26.80;86.60
43346;DHT22;28937;51.160;4.146;2022-08-03T11:19:10;26.80;86.70
43346;DHT22;28937;51.160;4.146;2022-08-03T11:27:20;26.70;87.40
43346;DHT22;28937;51.160;4.146;2022-08-03T11:35:07;26.70;87.00
43346;DHT22;28937;51.160;4.146;2022-08-03T11:37:33;26.70;86.70
43346;DHT22;28937;51.160;4.146;2022-08-03T11:39:58;26.70;86.80
43346;DHT22;28937;51.160;4.146;2022-08-03T11:42:37;26.70;86.80
43346;DHT22;28937;51.160;4.146;2022-08-03T11:45:06;26.80;86.30
43346;DHT22;28937;51.160;4.146;2022-08-03T11:47:36;26.80;86.20
43346;DHT22;28937;51.160;4.146;2022-08-03T11:50:02;26.80;86.20
43346;DHT22;28937;51.160;4.146;2022-08-03T11:52:36;26.70;86.10
43346;DHT22;28937;51.160;4.146;2022-08-03T11:55:09;26.70;86.10
43346;DHT22;28937;51.160;4.146;2022-08-03T11:57:35;26.80;86.00
43346;DHT22;28937;51.160;4.146;2022-08-03T12:00:00;26.70;86.10
43346;DHT22;28937;51.160;4.146;2022-08-03T12:02:26;26.70;86.10
43346;DHT22;28937;51.160;4.146;2022-08-03T12:04:52;26.80;86.00
43346;DHT22;28937;51.160;4.146;2022-08-03T12:07:19;26.70;85.90
43346;DHT22;28937;51.160;4.146;2022-08-03T12:10:10;26.70;86.00
43346;DHT22;28937;51.160;4.146;2022-08-03T12:12:37;26.80;85.90
43346;DHT22;28937;51.160;4.146;2022-08-03T12:15:04;26.80;85.60
43346;DHT22;28937;51.160;4.146;2022-08-03T12:17:34;26.80;85.50
43346;DHT22;28937;51.160;4.146;2022-08-03T12:20:00;26.80;85.60
43346;DHT22;28937;51.160;4.146;2022-08-03T12:22:36;26.80;85.60
43346;DHT22;28937;51.160;4.146;2022-08-03T12:25:07;26.80;85.10
43346;DHT22;28937;51.160;4.146;2022-08-03T12:27:34;26.80;84.60
43346;DHT22;28937;51.160;4.146;2022-08-03T12:30:00;26.80;84.60
43346;DHT22;28937;51.160;4.146;2022-08-03T12:32:28;26.90;84.50
43346;DHT22;28937;51.160;4.146;2022-08-03T12:34:54;26.90;84.30
43346;DHT22;28937;51.160;4.146;2022-08-03T12:37:24;26.90;84.10
43346;DHT22;28937;51.160;4.146;2022-08-03T12:39:54;26.90;83.90
43346;DHT22;28937;51.160;4.146;2022-08-03T12:42:20;26.90;84.00
43346;DHT22;28937;51.160;4.146;2022-08-03T12:44:46;27.00;83.90
43346;DHT22;28937;51.160;4.146;2022-08-03T12:47:13;26.90;83.90
43346;DHT22;28937;51.160;4.146;2022-08-03T12:49:47;26.90;83.70
43346;DHT22;28937;51.160;4.146;2022-08-03T12:52:14;27.00;83.70
43346;DHT22;28937;51.160;4.146;2022-08-03T12:54:40;27.00;83.70
43346;DHT22;28937;51.160;4.146;2022-08-03T12:57:08;26.90;83.50
43346;DHT22;28937;51.160;4.146;2022-08-03T12:59:41;27.00;84.30
43346;DHT22;28937;51.160;4.146;2022-08-03T13:02:17;27.00;83.90
43346;DHT22;28937;51.160;4.146;2022-08-03T13:04:44;27.00;84.00
43346;DHT22;28937;51.160;4.146;2022-08-03T13:07:11;26.90;83.90
43346;DHT22;28937;51.160;4.146;2022-08-03T13:09:55;27.00;84.10
43346;DHT22;28937;51.160;4.146;2022-08-03T13:12:22;27.10;84.20
43346;DHT22;28937;51.160;4.146;2022-08-03T13:14:50;27.10;84.10
43346;DHT22;28937;51.160;4.146;2022-08-03T13:17:16;27.00;84.10
43346;DHT22;28937;51.160;4.146;2022-08-03T13:19:42;27.10;84.10
43346;DHT22;28937;51.160;4.146;2022-08-03T13:22:12;27.10;83.90
43346;DHT22;28937;51.160;4.146;2022-08-03T13:24:38;27.10;83.90
43346;DHT22;28937;51.160;4.146;2022-08-03T13:27:04;27.10;84.00
43346;DHT22;28937;51.160;4.146;2022-08-03T13:29:32;27.10;83.80
43346;DHT22;28937;51.160;4.146;2022-08-03T13:31:58;27.10;83.70
43346;DHT22;28937;51.160;4.146;2022-08-03T13:34:24;27.10;84.00
43346;DHT22;28937;51.160;4.146;2022-08-03T13:36:51;27.00;83.80
43346;DHT22;28937;51.160;4.146;2022-08-03T13:39:16;27.10;83.60
43346;DHT22;28937;51.160;4.146;2022-08-03T13:41:44;27.10;83.60
43346;DHT22;28937;51.160;4.146;2022-08-03T13:44:10;27.10;83.50
43346;DHT22;28937;51.160;4.146;2022-08-03T13:46:35;27.10;83.30
43346;DHT22;28937;51.160;4.146;2022-08-03T13:49:01;27.00;83.40
43346;DHT22;28937;51.160;4.146;2022-08-03T13:51:26;27.10;83.40
43346;DHT22;28937;51.160;4.146;2022-08-03T13:53:52;27.20;83.40
43346;DHT22;28937;51.160;4.146;2022-08-03T13:56:17;27.10;83.40
43346;DHT22;28937;51.160;4.146;2022-08-03T13:58:43;27.10;83.50
43346;DHT22;28937;51.160;4.146;2022-08-03T14:01:09;27.10;83.30
43346;DHT22;28937;51.160;4.146;2022-08-03T14:03:34;27.20;83.20
43346;DHT22;28937;51.160;4.146;2022-08-03T14:06:00;27.20;83.20
43346;DHT22;28937;51.160;4.146;2022-08-03T14:08:25;27.20;83.30
43346;DHT22;28937;51.160;4.146;2022-08-03T14:10:51;27.60;82.10
43346;DHT22;28937;51.160;4.146;2022-08-03T14:13:16;27.30;82.80
43346;DHT22;28937;51.160;4.146;2022-08-03T14:15:42;27.20;83.50
43346;DHT22;28937;51.160;4.146;2022-08-03T14:18:08;27.10;83.90
43346;DHT22;28937;51.160;4.146;2022-08-03T14:20:35;27.10;84.00
43346;DHT22;28937;51.160;4.146;2022-08-03T14:23:01;27.10;84.10
43346;DHT22;28937;51.160;4.146;2022-08-03T14:25:26;27.10;83.80
43346;DHT22;28937;51.160;4.146;2022-08-03T14:27:52;27.10;83.80
43346;DHT22;28937;51.160;4.146;2022-08-03T14:30:18;27.10;83.50
43346;DHT22;28937;51.160;4.146;2022-08-03T14:32:43;27.10;83.40
43346;DHT22;28937;51.160;4.146;2022-08-03T14:35:09;27.20;83.20
43346;DHT22;28937;51.160;4.146;2022-08-03T14:37:35;27.10;83.30
43346;DHT22;28937;51.160;4.146;2022-08-03T14:40:00;27.20;83.30
43346;DHT22;28937;51.160;4.146;2022-08-03T14:42:26;27.10;83.30
43346;DHT22;28937;51.160;4.146;2022-08-03T14:44:52;27.20;83.00
43346;DHT22;28937;51.160;4.146;2022-08-03T14:47:18;27.20;82.80
43346;DHT22;28937;51.160;4.146;2022-08-03T14:49:43;27.30;82.80
43346;DHT22;28937;51.160;4.146;2022-08-03T14:52:09;27.30;82.70
43346;DHT22;28937;51.160;4.146;2022-08-03T14:54:35;27.30;83.20
43346;DHT22;28937;51.160;4.146;2022-08-03T14:57:00;27.30;82.70
43346;DHT22;28937;51.160;4.146;2022-08-03T14:59:26;27.40;82.30
43346;DHT22;28937;51.160;4.146;2022-08-03T15:01:52;27.50;82.00
43346;DHT22;28937;51.160;4.146;2022-08-03T15:04:18;27.50;81.80
43346;DHT22;28937;51.160;4.146;2022-08-03T15:06:43;27.50;81.90
43346;DHT22;28937;51.160;4.146;2022-08-03T15:09:09;27.50;81.80
43346;DHT22;28937;51.160;4.146;2022-08-03T15:11:35;27.60;82.00
43346;DHT22;28937;51.160;4.146;2022-08-03T15:14:01;27.60;81.80
43346;DHT22;28937;51.160;4.146;2022-08-03T15:16:28;27.60;82.40
43346;DHT22;28937;51.160;4.146;2022-08-03T15:18:54;27.60;81.70
43346;DHT22;28937;51.160;4.146;2022-08-03T15:21:19;27.60;81.70
43346;DHT22;28937;51.160;4.146;2022-08-03T15:23:45;27.60;81.80
43346;DHT22;28937;51.160;4.146;2022-08-03T15:26:11;27.60;81.90
43346;DHT22;28937;51.160;4.146;2022-08-03T15:28:36;27.60;81.20
43346;DHT22;28937;51.160;4.146;2022-08-03T15:31:02;27.60;81.00
43346;DHT22;28937;51.160;4.146;2022-08-03T15:33:28;27.70;81.50
43346;DHT22;28937;51.160;4.146;2022-08-03T15:35:54;27.70;79.70
43346;DHT22;28937;51.160;4.146;2022-08-03T15:38:20;27.70;78.80
43346;DHT22;28937;51.160;4.146;2022-08-03T15:40:49;27.80;78.30
43346;DHT22;28937;51.160;4.146;2022-08-03T15:43:15;27.80;78.80
43346;DHT22;28937;51.160;4.146;2022-08-03T15:45:40;27.80;78.60
43346;DHT22;28937;51.160;4.146;2022-08-03T15:48:07;27.80;78.60
43346;DHT22;28937;51.160;4.146;2022-08-03T15:50:33;27.80;78.90
43346;DHT22;28937;51.160;4.146;2022-08-03T15:52:59;27.80;79.20
43346;DHT22;28937;51.160;4.146;2022-08-03T15:55:24;27.80;79.30
43346;DHT22;28937;51.160;4.146;2022-08-03T15:57:50;27.80;79.40
43346;DHT22;28937;51.160;4.146;2022-08-03T16:00:16;27.80;79.60
43346;DHT22;28937;51.160;4.146;2022-08-03T16:02:41;27.90;79.90
43346;DHT22;28937;51.160;4.146;2022-08-03T16:05:07;27.80;79.80
43346;DHT22;28937;51.160;4.146;2022-08-03T16:07:33;27.90;80.10